Time;durP1;ratioP1;P1;durP2;ratioP2;P2;SDS_P1;SDS_P2;PMS_P1;PMS_P2;Temp;Humidity;BMP_temperature;BMP_pressure;BME280_temperature;BME280_humidity;BME280_pressure;Samples;Min_cycle;Max_cycle;Signal;HPM_P1;HPM_P2
2022/04/01 00:00:47;;;;;;;16.00;13.55;;;4.20;99.90;;;3.54;100.00;95749.03;5003647;28;20060;-70
2022/04/01 00:03:15;;;;;;;20.63;17.13;;;4.30;99.90;;;3.41;100.00;95753.88;5001374;28;20050;-71
2022/04/01 00:05:42;;;;;;;21.05;16.92;;;4.20;99.90;;;3.38;100.00;95751.44;5005978;28;20121;-71
2022/04/01 00:08:09;;;;;;;17.63;14.90;;;4.20;99.90;;;3.47;100.00;95752.78;4999392;28;20242;-71
2022/04/01 00:10:38;;;;;;;17.40;13.93;;;4.20;99.90;;;3.47;100.00;95760.47;5002818;28;20048;-71
2022/04/01 00:13:05;;;;;;;19.30;16.88;;;4.20;99.90;;;3.54;100.00;95756.75;5006154;28;20038;-71
2022/04/01 00:15:33;;;;;;;22.58;17.83;;;4.20;99.90;;;3.49;100.00;95758.66;5000440;28;20536;-71
2022/04/01 00:18:01;;;;;;;19.67;16.25;;;4.20;99.90;;;3.50;100.00;95760.34;5001845;28;20050;-71
2022/04/01 00:20:28;;;;;;;19.88;16.67;;;4.20;99.90;;;3.47;100.00;95763.03;5004330;28;20042;-71
2022/04/01 00:22:56;;;;;;;21.50;17.92;;;4.20;99.90;;;3.26;100.00;95764.78;5003771;28;20045;-71
2022/04/01 00:25:24;;;;;;;21.75;18.13;;;4.10;99.90;;;3.29;100.00;95767.22;4999252;28;20081;-71
2022/04/01 00:27:51;;;;;;;19.75;17.17;;;4.00;99.90;;;3.17;100.00;95760.91;5000802;28;20046;-71
2022/04/01 00:30:20;;;;;;;23.90;19.30;;;4.00;99.90;;;3.19;100.00;95765.94;5001049;28;20062;-71
2022/04/01 00:32:47;;;;;;;18.25;15.05;;;4.00;99.90;;;3.25;100.00;95765.69;5019804;28;20046;-71
2022/04/01 00:35:14;;;;;;;18.00;15.43;;;4.00;99.90;;;3.26;100.00;95765.63;5001358;28;20129;-70
2022/04/01 00:37:42;;;;;;;18.58;15.40;;;4.10;99.90;;;3.31;100.00;95766.25;5004647;28;20097;-71
2022/04/01 00:40:12;;;;;;;18.95;16.17;;;4.10;99.90;;;3.31;100.00;95765.44;5005392;28;20147;-70
2022/04/01 00:42:41;;;;;;;19.23;15.85;;;4.10;99.90;;;3.25;100.00;95760.56;5006660;28;20053;-71
2022/04/01 00:45:10;;;;;;;19.42;15.98;;;4.00;99.90;;;3.41;100.00;95765.88;5003168;28;20524;-71
2022/04/01 00:47:38;;;;;;;18.98;16.63;;;4.10;99.90;;;3.25;100.00;95760.56;5005911;28;20069;-70
2022/04/01 00:50:07;;;;;;;18.70;16.30;;;4.10;99.90;;;3.10;100.00;95762.03;4990597;28;20085;-70
2022/04/01 00:52:36;;;;;;;20.20;17.00;;;4.10;99.90;;;3.30;100.00;95761.19;5000052;28;20046;-71
2022/04/01 00:55:08;;;;;;;20.45;16.95;;;4.10;99.90;;;3.33;100.00;95764.47;5008287;28;20504;-71
2022/04/01 00:57:37;;;;;;;20.20;17.10;;;4.00;99.90;;;3.35;100.00;95759.25;5009822;28;20058;-71
2022/04/01 01:00:09;;;;;;;20.33;17.20;;;4.10;99.90;;;3.34;100.00;95762.72;5003377;28;20072;-71
2022/04/01 01:02:41;;;;;;;22.15;18.50;;;4.00;99.90;;;3.30;100.00;95756.06;5009485;28;20071;-71
2022/04/01 01:05:09;;;;;;;20.75;17.25;;;4.00;99.90;;;3.33;100.00;95759.34;4989881;28;20469;-69
2022/04/01 01:07:44;;;;;;;22.30;18.45;;;4.00;99.90;;;3.33;100.00;95755.91;5003766;28;20389;-71
2022/04/01 01:10:14;;;;;;;23.73;20.13;;;4.00;99.90;;;3.19;100.00;95755.69;4998564;28;20159;-70
2022/04/01 01:12:41;;;;;;;21.33;18.25;;;4.00;99.90;;;3.40;100.00;95754.78;5007260;28;20042;-71
2022/04/01 01:15:16;;;;;;;20.95;17.88;;;4.00;99.90;;;3.47;100.00;95748.47;5007372;28;20120;-70
2022/04/01 01:17:43;;;;;;;21.25;17.70;;;4.00;99.90;;;3.38;100.00;95750.63;5017764;28;20073;-71
2022/04/01 01:20:15;;;;;;;21.02;18.58;;;4.00;99.90;;;3.27;100.00;95757.03;5008122;28;20491;-71
2022/04/01 01:22:47;;;;;;;21.13;17.83;;;4.00;99.90;;;3.33;100.00;95749.09;5019727;28;20106;-71
2022/04/01 01:25:15;;;;;;;24.58;20.50;;;4.00;99.90;;;3.08;100.00;95744.16;5022643;28;20137;-71
2022/04/01 01:27:43;;;;;;;25.10;20.33;;;4.00;99.90;;;3.25;100.00;95746.00;5004005;28;20089;-71
2022/04/01 01:30:11;;;;;;;22.95;19.42;;;4.00;99.90;;;3.13;100.00;95747.38;5004231;28;20050;-71
2022/04/01 01:32:38;;;;;;;20.30;17.63;;;4.00;99.90;;;3.21;100.00;95754.72;5004987;28;20180;-71
2022/04/01 01:35:08;;;;;;;27.00;21.33;;;4.00;99.90;;;3.25;100.00;95742.63;5009621;28;20045;-70
2022/04/01 01:37:36;;;;;;;23.90;20.65;;;4.00;99.90;;;3.23;100.00;95742.66;5006486;28;20045;-71
2022/04/01 01:40:05;;;;;;;23.00;19.60;;;3.90;99.90;;;3.28;100.00;95739.91;5007603;28;20088;-70
2022/04/01 01:42:32;;;;;;;24.75;21.25;;;4.00;99.90;;;3.15;100.00;95749.88;5001741;28;20174;-71
2022/04/01 01:45:01;;;;;;;27.83;22.20;;;4.00;99.90;;;3.15;100.00;95747.31;5013064;28;20055;-71
2022/04/01 01:47:28;;;;;;;26.00;20.88;;;3.90;99.90;;;3.20;100.00;95742.00;5005551;28;20053;-70
2022/04/01 01:55:30;;;;;;;25.52;21.45;;;3.80;99.90;;;2.97;100.00;95743.78;5004855;28;20132;-71
2022/04/01 01:57:57;;;;;;;26.75;21.30;;;3.80;99.90;;;3.08;100.00;95745.88;5005267;28;20147;-71
2022/04/01 02:00:25;;;;;;;27.85;23.35;;;3.90;99.90;;;3.02;100.00;95744.41;5003120;28;20225;-71
2022/04/01 02:02:52;;;;;;;30.33;27.00;;;3.80;99.90;;;2.92;100.00;95746.53;5000289;28;20076;-71
2022/04/01 02:05:19;;;;;;;28.65;25.60;;;3.70;99.90;;;3.03;100.00;95745.25;5001126;28;20046;-71
2022/04/01 02:07:49;;;;;;;27.63;23.83;;;3.80;99.90;;;3.00;100.00;95743.66;5008149;28;20160;-71
2022/04/01 02:10:16;;;;;;;26.90;23.95;;;3.80;99.90;;;2.90;100.00;95745.78;5002931;28;20058;-70
2022/04/01 02:12:43;;;;;;;27.02;23.77;;;3.80;99.90;;;2.99;100.00;95741.13;5000461;28;20077;-71
2022/04/01 02:15:11;;;;;;;28.77;25.65;;;3.80;99.90;;;3.02;100.00;95746.16;5003295;28;20574;-71
2022/04/01 02:17:40;;;;;;;30.33;26.55;;;3.80;99.90;;;3.05;100.00;95740.91;5006399;28;20129;-71
2022/04/01 02:20:10;;;;;;;28.38;24.67;;;3.80;99.90;;;3.21;100.00;95754.72;5005937;28;20169;-71
2022/04/01 02:22:38;;;;;;;30.98;26.05;;;3.80;99.90;;;3.16;100.00;95743.84;5005382;28;20137;-69
2022/04/01 02:25:11;;;;;;;30.65;26.77;;;3.70;99.90;;;3.16;100.00;95745.56;5009371;28;20117;-69
2022/04/01 02:27:39;;;;;;;26.98;23.60;;;3.80;99.90;;;3.27;100.00;95735.69;5014694;28;20042;-69
2022/04/01 02:30:10;;;;;;;28.00;24.08;;;3.80;99.90;;;3.22;100.00;95742.75;5006244;28;20092;-71
2022/04/01 02:32:42;;;;;;;28.17;24.30;;;3.90;99.90;;;2.96;100.00;95739.53;5004758;28;20045;-69
2022/04/01 02:35:10;;;;;;;28.00;24.60;;;3.90;99.90;;;3.06;100.00;95748.53;5008057;28;20068;-71
2022/04/01 02:37:39;;;;;;;26.45;23.30;;;3.80;99.90;;;3.00;100.00;95748.78;4998461;28;20054;-71
2022/04/01 02:40:09;;;;;;;26.83;23.23;;;3.90;99.90;;;3.04;100.00;95747.75;5004397;28;20077;-70
2022/04/01 02:42:37;;;;;;;27.73;24.30;;;3.90;99.90;;;3.02;100.00;95744.41;5000921;28;20512;-70
2022/04/01 02:45:05;;;;;;;30.58;25.85;;;3.80;99.90;;;2.90;100.00;95750.91;5002435;28;20082;-70
2022/04/01 02:47:32;;;;;;;34.67;28.38;;;3.80;99.90;;;2.86;100.00;95751.91;5000934;28;20046;-71
2022/04/01 02:50:00;;;;;;;31.58;26.63;;;3.60;99.90;;;2.90;100.00;95750.06;5001120;28;20133;-70
2022/04/01 02:52:27;;;;;;;29.15;25.05;;;3.60;99.90;;;2.89;100.00;95756.06;5002622;28;20042;-70
2022/04/01 02:54:55;;;;;;;31.42;26.33;;;3.70;99.90;;;2.86;100.00;95754.47;5004953;28;20113;-70
2022/04/01 02:57:22;;;;;;;29.27;24.90;;;3.70;99.90;;;2.89;100.00;95761.19;4999633;28;20114;-70
2022/04/01 02:59:49;;;;;;;35.22;30.08;;;3.70;99.90;;;2.74;100.00;95760.13;5000402;28;20068;-70
2022/04/01 03:02:16;;;;;;;31.45;27.67;;;3.70;99.90;;;2.90;100.00;95755.19;5000012;28;20127;-70
2022/04/01 03:04:45;;;;;;;34.40;26.98;;;3.60;99.90;;;2.97;100.00;95756.59;5002365;28;20067;-71
2022/04/01 03:07:12;;;;;;;37.13;29.38;;;3.60;99.90;;;2.84;100.00;95761.38;5003296;28;20527;-70
2022/04/01 03:09:39;;;;;;;36.60;28.95;;;3.60;99.90;;;2.86;100.00;95759.59;5000479;28;20056;-71
2022/04/01 03:12:07;;;;;;;36.95;28.13;;;3.60;99.90;;;2.80;100.00;95762.41;5001206;28;20070;-71
2022/04/01 03:14:36;;;;;;;32.53;27.38;;;3.60;99.90;;;2.91;100.00;95767.94;5004676;28;20067;-71
2022/04/01 03:17:03;;;;;;;32.95;26.70;;;3.60;99.90;;;2.86;100.00;95764.72;5014488;28;20074;-71
2022/04/01 03:19:31;;;;;;;33.63;26.05;;;3.70;99.90;;;3.00;100.00;95761.59;4998685;28;20057;-71
2022/04/01 03:21:58;;;;;;;32.65;25.65;;;3.70;99.90;;;2.94;100.00;95761.84;4998282;28;20220;-71
2022/04/01 03:24:25;;;;;;;33.22;27.25;;;3.70;99.90;;;2.95;100.00;95765.25;5005391;28;20132;-71
2022/04/01 03:26:53;;;;;;;34.05;26.02;;;3.70;99.90;;;3.01;100.00;95770.97;5007066;28;20050;-71
2022/04/01 03:29:20;;;;;;;33.10;26.95;;;3.70;99.90;;;3.11;100.00;95767.09;4998394;28;20042;-71
2022/04/01 03:31:48;;;;;;;31.42;25.23;;;3.70;99.90;;;2.94;100.00;95769.53;4997809;28;20104;-71
2022/04/01 03:34:16;;;;;;;32.25;25.70;;;3.60;99.90;;;3.02;100.00;95775.19;5006500;28;20057;-71
2022/04/01 03:36:44;;;;;;;36.10;27.50;;;3.70;99.90;;;2.98;100.00;95772.81;5002312;28;20145;-71
2022/04/01 03:39:12;;;;;;;44.67;33.15;;;3.70;99.90;;;2.82;100.00;95777.72;4999917;28;20084;-71
2022/04/01 03:41:39;;;;;;;34.22;27.05;;;3.60;99.90;;;2.82;100.00;95773.44;5002954;28;20080;-71
2022/04/01 03:44:06;;;;;;;30.17;24.48;;;3.60;99.90;;;3.01;100.00;95772.66;5004313;28;20122;-71
2022/04/01 03:46:51;;;;;;;37.22;28.42;;;3.60;99.90;;;2.89;100.00;95776.56;5006106;28;20046;-70
2022/04/01 03:49:24;;;;;;;31.13;24.70;;;3.50;99.90;;;2.97;100.00;95771.16;5001159;28;20049;-68
2022/04/01 03:51:52;;;;;;;;;;;3.50;99.90;;;2.92;100.00;95768.78;5001507;28;20129;-70
2022/04/01 03:54:19;;;;;;;34.42;26.08;;;3.60;99.90;;;2.80;100.00;95777.78;5003634;28;19945;-69
2022/04/01 03:56:58;;;;;;;36.20;26.63;;;3.60;99.90;;;2.81;100.00;95774.34;5006273;28;20053;-70
2022/04/01 03:59:40;;;;;;;34.75;27.35;;;3.50;99.90;;;2.80;100.00;95774.41;5005173;28;20081;-69
2022/04/01 04:02:13;;;;;;;35.30;26.58;;;3.60;99.90;;;2.94;100.00;95774.66;5011124;28;20146;-69
2022/04/01 04:04:41;;;;;;;32.78;26.05;;;3.60;99.90;;;2.85;100.00;95775.03;5000683;28;20107;-70
2022/04/01 04:07:09;;;;;;;37.17;27.55;;;3.60;99.90;;;2.82;100.00;95770.88;5004975;28;20108;-70
2022/04/01 04:09:39;;;;;;;31.02;25.25;;;3.60;99.90;;;3.08;100.00;95774.06;5007929;28;20736;-71
2022/04/01 04:12:12;;;;;;;32.97;26.35;;;3.60;99.90;;;3.16;100.00;95777.16;5004519;28;20213;-71
2022/04/01 04:14:44;;;;;;;30.88;24.75;;;3.60;99.90;;;3.05;100.00;95771.66;5005911;28;20042;-71
2022/04/01 04:17:16;;;;;;;43.28;31.58;;;3.70;99.90;;;2.81;100.00;95779.47;5008458;28;20129;-70
2022/04/01 04:19:57;;;;;;;34.38;28.83;;;3.70;99.90;;;2.78;100.00;95787.25;5005521;28;20104;-70
2022/04/01 04:22:32;;;;;;;35.80;27.35;;;3.60;99.90;;;2.92;100.00;95779.03;5003344;28;20088;-70
2022/04/01 04:25:10;;;;;;;32.13;26.08;;;3.60;99.90;;;2.95;100.00;95785.75;5002772;28;20050;-70
2022/04/01 04:27:56;;;;;;;39.33;30.48;;;3.60;99.90;;;2.75;100.00;95787.38;5017592;28;20555;-71
2022/04/01 04:30:32;;;;;;;35.85;26.38;;;3.50;99.90;;;2.72;100.00;95790.09;5006226;28;20077;-70
2022/04/01 04:33:06;;;;;;;33.15;27.13;;;3.50;99.90;;;2.72;100.00;95790.09;5007126;28;20053;-71
2022/04/01 04:35:40;;;;;;;36.72;28.80;;;3.60;99.90;;;2.60;100.00;95793.13;5005257;28;20072;-70
2022/04/01 04:38:08;;;;;;;39.38;30.23;;;3.50;99.90;;;2.63;100.00;95803.25;5006084;28;20124;-70
2022/04/01 04:40:36;;;;;;;46.13;32.38;;;3.60;99.90;;;2.56;100.00;95801.84;5006098;28;20072;-70
2022/04/01 04:43:03;;;;;;;41.67;30.58;;;3.50;99.90;;;2.60;100.00;95799.09;5006987;28;20077;-71
2022/04/01 04:45:30;;;;;;;39.70;31.23;;;3.40;99.90;;;2.56;100.00;95805.22;5009666;28;20761;-71
2022/04/01 04:47:58;;;;;;;37.95;29.35;;;3.40;99.90;;;2.56;100.00;95809.53;5003921;28;20152;-71
2022/04/01 04:50:25;;;;;;;44.13;32.05;;;3.40;99.90;;;2.42;100.00;95816.00;5006524;28;20049;-71
2022/04/01 04:52:55;;;;;;;42.60;31.67;;;3.30;99.90;;;2.46;100.00;95820.13;5007344;28;20136;-71
2022/04/01 04:55:24;;;;;;;39.33;30.15;;;3.30;99.90;;;2.57;100.00;95819.69;5005077;28;20144;-70
2022/04/01 04:57:53;;;;;;;34.35;26.27;;;3.30;99.90;;;2.50;100.00;95820.81;5004998;28;20165;-70
2022/04/01 05:00:21;;;;;;;38.65;29.60;;;3.30;99.90;;;2.54;100.00;95826.69;5017256;28;20074;-70
2022/04/01 05:03:13;;;;;;;37.70;27.75;;;3.30;99.90;;;2.56;100.00;95823.16;5003140;28;20046;-70
2022/04/01 05:05:47;;;;;;;33.55;26.38;;;3.30;99.90;;;2.53;100.00;95828.38;5005348;28;20046;-71
2022/04/01 05:08:51;;;;;;;39.47;28.83;;;3.40;99.90;;;2.58;100.00;95831.63;4990188;28;20145;-70
2022/04/01 05:11:48;;;;;;;35.27;26.27;;;3.30;99.90;;;2.62;100.00;95840.00;5001906;28;20575;-70
2022/04/01 05:14:30;;;;;;;39.30;28.05;;;3.30;99.90;;;2.63;100.00;95845.06;5004471;28;20117;-71
2022/04/01 05:17:03;;;;;;;38.58;29.88;;;3.40;99.90;;;2.54;100.00;95844.59;5000553;28;20042;-70
2022/04/01 05:19:32;;;;;;;41.17;30.63;;;3.30;99.90;;;2.47;100.00;95854.25;5009668;28;20064;-70
2022/04/01 05:22:09;;;;;;;36.75;29.48;;;3.30;99.90;;;2.47;100.00;95859.38;5004002;28;20176;-71
2022/04/01 05:24:48;;;;;;;39.92;29.80;;;3.30;99.90;;;2.59;100.00;95855.50;5007472;28;20074;-73
2022/04/01 05:27:23;;;;;;;41.13;29.35;;;3.30;99.90;;;2.50;100.00;95862.63;5008067;28;20046;-71
2022/04/01 05:30:16;;;;;;;42.22;32.75;;;3.30;99.90;;;2.33;100.00;95864.16;5007253;28;20061;-71
2022/04/01 05:33:14;;;;;;;43.38;33.10;;;3.20;99.90;;;2.34;100.00;95860.72;5005430;28;20135;-71
2022/04/01 05:35:51;;;;;;;43.15;34.05;;;3.10;99.90;;;2.20;100.00;95858.69;5002938;28;20050;-71
2022/04/01 05:38:22;;;;;;;43.00;33.45;;;3.00;99.90;;;2.20;100.00;95869.75;5004569;28;20126;-71
2022/04/01 05:40:50;;;;;;;41.90;31.52;;;3.10;99.90;;;2.27;100.00;95873.75;5004782;28;20104;-71
2022/04/01 05:43:18;;;;;;;43.35;32.05;;;3.10;99.90;;;2.28;100.00;95862.63;5006947;28;20790;-71
2022/04/01 05:45:48;;;;;;;40.88;32.33;;;3.10;99.90;;;2.28;100.00;95870.31;5020302;28;20422;-71
2022/04/01 05:48:17;;;;;;;40.20;31.15;;;3.10;99.90;;;2.25;100.00;95872.13;5003717;28;20134;-70
2022/04/01 05:50:46;;;;;;;37.38;31.42;;;3.10;99.90;;;2.22;100.00;95874.81;5002850;28;20461;-71
2022/04/01 05:53:14;;;;;;;38.00;31.02;;;3.10;99.90;;;2.35;100.00;95877.75;4984679;28;20104;-71
2022/04/01 05:55:42;;;;;;;38.58;30.30;;;3.20;99.90;;;2.28;100.00;95877.13;5004681;28;20476;-71
2022/04/01 05:58:09;;;;;;;36.15;30.42;;;3.10;99.90;;;2.31;100.00;95877.03;5006428;28;20042;-71
2022/04/01 06:00:57;;;;;;;36.95;29.65;;;3.10;99.90;;;2.23;100.00;95882.41;5023309;28;20065;-71
2022/04/01 06:03:46;;;;;;;34.78;28.95;;;3.10;99.90;;;2.20;100.00;95886.84;5011968;28;20096;-71
2022/04/01 06:06:43;;;;;;;37.25;29.77;;;3.10;99.90;;;2.31;100.00;95884.72;5001711;28;20137;-71
2022/04/01 06:09:47;;;;;;;34.42;27.55;;;3.20;99.90;;;2.26;100.00;95884.88;5009303;28;20116;-72
2022/04/01 06:12:19;;;;;;;34.78;25.75;;;3.10;99.90;;;2.32;100.00;95896.63;5010185;28;20132;-71
2022/04/01 06:15:40;;;;;;;34.33;24.42;;;3.10;99.90;;;2.31;100.00;95889.84;5008674;28;20120;-71
2022/04/01 06:18:25;;;;;;;37.55;25.77;;;3.10;99.90;;;2.13;100.00;95891.34;5002135;28;20055;-71
2022/04/01 06:20:58;;;;;;;31.95;23.73;;;3.00;99.90;;;2.15;100.00;95888.72;5007438;28;20377;-71
2022/04/01 06:23:41;;;;;;;32.10;24.17;;;3.00;99.90;;;2.26;100.00;95897.69;5010953;28;20443;-70
2022/04/01 06:26:13;;;;;;;29.92;22.20;;;3.00;99.90;;;2.34;100.00;95905.06;4997211;28;20092;-70
2022/04/01 06:28:54;;;;;;;29.75;21.85;;;3.10;99.90;;;2.39;100.00;95905.72;5010654;28;20144;-70
2022/04/01 06:31:30;;;;;;;28.35;21.20;;;3.20;99.90;;;2.32;100.00;95904.28;5009691;28;20058;-71
2022/04/01 06:34:21;;;;;;;27.42;21.60;;;3.20;99.90;;;2.41;100.00;95911.63;5010797;28;20883;-71
2022/04/01 06:36:51;;;;;;;27.85;20.52;;;3.20;99.90;;;2.34;100.00;95915.31;5007178;28;20053;-72
2022/04/01 06:39:37;;;;;;;26.10;19.90;;;3.30;99.90;;;2.33;100.00;95915.38;5003689;28;20156;-71
2022/04/01 06:42:09;;;;;;;24.83;19.70;;;3.20;99.90;;;2.25;100.00;95923.34;5025165;28;20042;-72
2022/04/01 06:44:36;;;;;;;25.63;20.75;;;3.20;99.90;;;2.34;100.00;95920.44;5007408;28;20121;-71
2022/04/01 06:47:03;;;;;;;22.17;18.63;;;3.20;99.90;;;2.39;100.00;95918.53;5004447;28;20069;-71
2022/04/01 06:49:30;;;;;;;24.27;18.60;;;3.20;99.90;;;2.22;100.00;95920.91;5026076;28;20157;-72
2022/04/01 06:51:58;;;;;;;22.63;18.85;;;3.10;99.90;;;2.22;100.00;95918.34;5002338;28;20741;-70
2022/04/01 06:54:25;;;;;;;26.65;21.10;;;3.10;99.90;;;2.12;100.00;95922.94;5004924;28;20089;-71
2022/04/01 06:56:52;;;;;;;24.52;19.67;;;3.00;99.90;;;2.00;100.00;95921.66;5004983;28;20595;-70
2022/04/01 06:59:20;;;;;;;22.52;18.60;;;3.00;99.90;;;2.15;100.00;95927.13;5002804;28;20125;-71
2022/04/01 07:01:47;;;;;;;25.05;18.40;;;3.00;99.90;;;2.24;100.00;95924.25;5002862;28;20052;-71
2022/04/01 07:04:14;;;;;;;21.55;18.02;;;3.00;99.90;;;2.21;100.00;95930.31;4999933;28;20122;-70
2022/04/01 07:06:42;;;;;;;20.95;16.70;;;3.00;99.90;;;2.15;100.00;95932.25;5002415;28;20117;-70
2022/04/01 07:09:09;;;;;;;21.13;17.10;;;3.00;99.90;;;2.06;100.00;95935.97;4996323;28;20057;-70
2022/04/01 07:11:36;;;;;;;19.73;15.15;;;3.10;99.90;;;2.24;100.00;95927.63;5015479;28;20204;-70
2022/04/01 07:14:03;;;;;;;21.05;16.92;;;3.10;99.90;;;2.23;100.00;95932.78;5002466;28;20088;-71
2022/04/01 07:16:30;;;;;;;19.98;16.42;;;3.10;99.90;;;2.17;100.00;95935.59;5001955;28;20060;-71
2022/04/01 07:18:57;;;;;;;21.38;17.63;;;3.10;99.90;;;2.07;100.00;95933.31;4996967;28;20077;-71
2022/04/01 07:21:25;;;;;;;20.30;16.75;;;3.00;99.90;;;2.14;100.00;95930.56;5000005;28;20066;-71
2022/04/01 07:23:52;;;;;;;21.33;17.02;;;3.00;99.90;;;2.09;100.00;95933.28;5000765;28;20058;-71
2022/04/01 07:26:19;;;;;;;21.67;17.15;;;2.90;99.90;;;1.90;100.00;95937.41;5008226;28;20136;-71
2022/04/01 07:28:48;;;;;;;19.90;16.23;;;2.80;99.90;;;2.03;100.00;95936.91;5005168;28;20145;-70
2022/04/01 07:34:43;;;;;;;20.48;17.02;;;2.90;99.90;;;2.20;100.00;95931.19;5002214;28;20492;-70
2022/04/01 07:37:12;;;;;;;20.30;16.73;;;3.00;99.90;;;2.26;100.00;95938.66;5006256;28;20092;-70
2022/04/01 07:39:59;;;;;;;18.65;15.63;;;3.10;99.90;;;2.46;100.00;95940.50;5000253;28;20559;-70
2022/04/01 07:42:27;;;;;;;17.45;13.90;;;3.20;99.90;;;2.67;100.00;95938.03;5008158;28;20120;-72
2022/04/01 07:44:55;;;;;;;16.40;13.35;;;3.40;99.90;;;2.67;100.00;95935.47;5005803;28;20080;-70
2022/04/01 07:47:22;;;;;;;17.23;13.55;;;3.50;99.90;;;2.70;100.00;95940.47;5004707;28;20485;-71
2022/04/01 07:49:51;;;;;;;15.82;12.88;;;3.70;99.90;;;2.56;100.00;95933.28;5004385;28;20567;-70
2022/04/01 07:52:20;;;;;;;16.48;12.98;;;3.50;99.90;;;2.53;100.00;95942.81;5003652;28;20054;-70
2022/04/01 07:54:50;;;;;;;15.70;12.82;;;3.50;99.90;;;2.45;100.00;95940.53;5007816;28;20058;-70
2022/04/01 07:57:18;;;;;;;15.80;12.80;;;3.40;99.90;;;2.54;100.00;95929.94;5004821;28;20080;-71
2022/04/01 07:59:46;;;;;;;16.35;12.88;;;3.40;99.90;;;2.57;100.00;95937.50;4997561;28;20073;-70
2022/04/01 08:02:14;;;;;;;17.38;13.13;;;3.40;99.90;;;2.55;100.00;95946.16;5000845;28;20042;-70
2022/04/01 08:04:41;;;;;;;13.93;11.70;;;3.50;99.90;;;2.50;100.00;95942.03;4997564;28;20131;-69
2022/04/01 08:07:14;;;;;;;16.05;11.30;;;3.50;99.90;;;2.41;100.00;95949.22;4999030;28;20141;-70
2022/04/01 08:09:41;;;;;;;13.05;10.57;;;3.40;99.90;;;2.48;100.00;95955.78;4998831;28;20132;-69
2022/04/01 08:12:08;;;;;;;13.10;11.15;;;3.40;99.90;;;2.58;100.00;95952.00;4983430;28;20046;-70
2022/04/01 08:14:37;;;;;;;15.82;11.70;;;3.40;99.90;;;2.46;100.00;95950.72;5000811;28;20094;-70
2022/04/01 08:17:06;;;;;;;14.15;10.52;;;3.40;99.90;;;2.77;100.00;95941.91;5003586;28;20176;-70
2022/04/01 08:19:34;;;;;;;11.77;10.13;;;3.60;99.90;;;2.88;100.00;95949.19;5014599;28;20522;-71
2022/04/01 08:22:01;;;;;;;14.27;11.18;;;3.80;99.90;;;2.90;100.00;95944.84;4996250;28;20045;-70
2022/04/01 08:24:28;;;;;;;13.27;10.60;;;3.80;99.90;;;2.67;100.00;95936.28;5001045;28;20194;-70
2022/04/01 08:26:57;;;;;;;12.20;9.98;;;3.70;99.90;;;2.85;100.00;95950.13;5002908;28;20060;-70
2022/04/01 08:29:26;;;;;;;12.50;9.82;;;3.90;99.90;;;3.01;100.00;95958.06;5001536;28;20052;-70
2022/04/01 08:31:54;;;;;;;11.82;9.20;;;4.00;99.90;;;3.09;100.00;95956.03;4996873;28;20077;-71
2022/04/01 08:34:21;;;;;;;11.60;8.55;;;4.00;99.90;;;3.09;100.00;95965.44;4999065;28;20050;-71
2022/04/01 08:36:48;;;;;;;10.57;8.68;;;4.10;99.90;;;2.87;100.00;95968.84;5001002;28;20129;-71
2022/04/01 08:39:15;;;;;;;11.35;8.80;;;3.90;99.90;;;3.20;100.00;95960.75;5001428;28;20081;-71
2022/04/01 08:41:43;;;;;;;10.95;8.27;;;3.90;99.90;;;3.07;100.00;95957.81;5000910;28;20046;-70
2022/04/01 08:44:10;;;;;;;12.50;8.90;;;3.90;99.90;;;2.93;100.00;95962.66;4998631;28;20073;-70
2022/04/01 08:46:37;;;;;;;14.73;8.82;;;3.90;99.90;;;3.05;100.00;95963.91;4998192;28;20069;-70
2022/04/01 08:49:06;;;;;;;9.90;7.85;;;3.90;99.90;;;3.43;100.00;95969.25;5019433;28;20079;-70
2022/04/01 08:51:33;;;;;;;10.75;8.77;;;4.20;99.90;;;3.38;100.00;95976.31;4996075;28;20149;-71
2022/04/01 08:54:02;;;;;;;16.52;9.50;;;4.20;99.90;;;3.21;100.00;95974.38;4966691;28;20214;-71
2022/04/01 08:56:29;;;;;;;10.82;8.27;;;4.20;99.90;;;3.11;100.00;95979.06;5001119;28;20062;-73
2022/04/01 08:58:56;;;;;;;9.93;7.50;;;4.30;99.90;;;3.33;100.00;95979.88;5006930;28;20060;-70
2022/04/01 09:01:24;;;;;;;12.25;8.55;;;4.40;99.90;;;3.38;100.00;95986.56;4997998;28;20508;-71
2022/04/01 09:03:55;;;;;;;10.63;8.20;;;4.40;99.90;;;3.44;100.00;95987.13;4999188;28;20061;-71
2022/04/01 09:06:22;;;;;;;10.48;8.15;;;4.50;99.90;;;3.33;100.00;95982.44;4999656;28;20085;-71
2022/04/01 09:08:58;;;;;;;8.88;7.55;;;4.50;99.90;;;3.71;100.00;95976.66;5001299;28;20089;-71
2022/04/01 09:11:31;;;;;;;11.15;7.88;;;4.60;99.90;;;3.91;100.00;95983.53;4996242;28;20096;-72
2022/04/01 09:13:59;;;;;;;11.07;8.10;;;4.80;99.90;;;3.77;100.00;95976.41;4999972;28;20140;-70
2022/04/01 09:16:32;;;;;;;12.05;8.32;;;4.90;99.90;;;4.16;100.00;95973.91;5000510;28;20164;-71
2022/04/01 09:19:09;;;;;;;13.65;8.80;;;5.20;99.90;;;3.92;100.00;95987.75;4991044;28;20057;-71
2022/04/01 09:21:42;;;;;;;10.20;8.07;;;5.20;99.90;;;3.66;100.00;95986.28;4999924;28;20139;-70
2022/04/01 09:24:12;;;;;;;10.30;8.02;;;5.00;99.90;;;3.90;100.00;95990.41;5001786;28;20050;-70
2022/04/01 09:26:41;;;;;;;11.70;7.57;;;4.90;99.90;;;3.52;100.00;95991.97;5005038;28;20058;-70
2022/04/01 09:29:11;;;;;;;11.35;8.10;;;4.80;99.90;;;3.47;100.00;96002.41;5002256;28;20526;-70
2022/04/01 09:31:40;;;;;;;11.27;8.10;;;4.70;99.90;;;3.38;100.00;96002.78;4999903;28;20123;-70
2022/04/01 09:34:13;;;;;;;11.45;8.50;;;4.50;99.90;;;3.68;100.00;96007.59;5003618;28;20599;-70
2022/04/01 09:36:43;;;;;;;16.13;10.02;;;4.60;99.90;;;3.53;100.00;96014.97;4986430;28;20054;-70
2022/04/01 09:39:16;;;;;;;10.98;8.38;;;4.60;99.90;;;3.32;100.00;96013.28;5005449;28;20073;-70
2022/04/01 09:41:48;;;;;;;10.60;8.05;;;4.60;99.90;;;3.85;100.00;96012.03;5016695;28;20042;-71
2022/04/01 09:44:28;;;;;;;11.68;8.88;;;4.80;99.90;;;3.51;100.00;96019.38;5014671;28;20049;-71
2022/04/01 09:47:03;;;;;;;10.98;8.82;;;4.70;99.90;;;3.36;100.00;96014.84;5001061;28;20145;-71
2022/04/01 09:49:44;;;;;;;13.25;8.73;;;4.60;99.90;;;3.17;100.00;96022.41;5004204;28;20126;-70
2022/04/01 09:52:13;;;;;;;12.98;8.35;;;4.30;99.90;;;2.97;100.00;96032.56;4999966;28;20116;-70
2022/04/01 09:54:53;;;;;;;13.43;8.93;;;4.10;99.90;;;2.99;100.00;96023.94;4998752;28;20128;-70
2022/04/01 09:57:25;;;;;;;10.70;8.35;;;4.10;99.90;;;3.02;100.00;96025.53;4986269;28;20073;-70
2022/04/01 09:59:53;;;;;;;11.88;8.60;;;4.00;99.90;;;2.98;100.00;96032.50;5003486;28;21712;-70
2022/04/01 10:02:21;;;;;;;10.85;8.57;;;4.00;99.90;;;2.96;100.00;96028.31;5000516;28;20527;-71
2022/04/01 10:04:49;;;;;;;11.45;8.48;;;4.00;99.90;;;3.11;100.00;96035.44;5001673;28;20085;-71
2022/04/01 10:07:19;;;;;;;13.30;9.20;;;4.00;99.90;;;2.72;100.00;96038.59;4985400;28;20144;-71
2022/04/01 10:09:48;;;;;;;14.93;8.90;;;3.80;99.90;;;2.75;100.00;96040.22;4999260;28;20050;-71
2022/04/01 10:12:36;;;;;;;15.10;9.40;;;3.70;99.90;;;2.82;100.00;96041.66;5011600;28;20504;-71
2022/04/01 10:15:07;;;;;;;12.60;9.48;;;3.70;99.90;;;2.77;100.00;96041.00;5008365;28;20157;-71
2022/04/01 10:17:54;;;;;;;10.77;8.23;;;3.70;99.90;;;2.86;100.00;96050.91;4990554;28;20456;-71
2022/04/01 10:20:28;;;;;;;12.32;8.73;;;3.80;99.90;;;2.87;100.00;96055.97;5022723;28;20096;-71
2022/04/01 10:22:56;;;;;;;11.90;8.20;;;3.80;99.90;;;2.61;100.00;96056.91;5007313;28;20074;-71
2022/04/01 10:25:58;;;;;;;14.05;8.93;;;3.70;99.90;;;2.59;100.00;96056.13;5004923;28;20049;-71
2022/04/01 10:28:27;;;;;;;12.75;8.65;;;3.70;99.90;;;2.60;100.00;96064.63;5020498;28;20140;-69
2022/04/01 10:31:01;;;;;;;13.30;9.82;;;3.50;99.90;;;2.66;100.00;96060.13;5003743;28;20077;-70
2022/04/01 10:33:35;;;;;;;11.35;8.05;;;3.50;99.90;;;2.56;100.00;96057.97;5000724;28;20054;-70
2022/04/01 10:36:17;;;;;;;12.30;8.75;;;3.60;99.90;;;2.84;100.00;96058.63;5003869;28;20102;-70
2022/04/01 10:38:48;;;;;;;11.93;8.45;;;3.80;99.90;;;2.83;100.00;96067.22;5002840;28;20167;-70
2022/04/01 10:41:18;;;;;;;12.40;8.70;;;3.90;99.90;;;2.84;100.00;96063.75;5004060;28;20046;-70